EDDL/DUS METAR and TAF weather

Enter ICAO airport designator
Station Type Date Time Source
EDDL METAR 2022/08/13 11:50 UTC NOAA

EDDL 131150Z AUTO 03005KT 270V080 CAVOK 31/08 Q1016 NOSIG


Station Type Date Time Source
EDDL Decoded METAR 2022/08/13 11:50 UTC NOAA

Duesseldorf, Germany (EDDL) 51-18N 006-46E 41M
Aug 13, 2022 - 07:50 AM EDT / 2022.08.13 1150 UTC
Wind: from the NNE (030 degrees) at 6 MPH (5 KT) (direction variable):0
Visibility: greater than 7 mile(s):0
Temperature: 87 F (31 C)
Dew Point: 46 F (8 C)
Relative Humidity: 23%
Pressure (altimeter): 30.00 in. Hg (1016 hPa)
ob: EDDL 131150Z AUTO 03005KT 270V080 CAVOK 31/08 Q1016 NOSIG
cycle: 12

Station Type Date Time Source
EDDL TAF 2022/08/13 12:27 UTC NOAA

TAF EDDL 131100Z 1312/1418 07007KT CAVOK
TEMPO 1312/1315 13007KT
BECMG 1400/1403 VRB03KT
BECMG 1407/1410 11007KT

Example: see airport list